WetterOnline ( https://www.wetteronline.ch )

Wetter aktuell Prenzlau

Aktuelles Wetter: Grünow (57m)

6-stündlich | Neueste Meldungen
Ortszeit Temperatur Wetter
So, 07.06. 8:00 11.4° C bewölkt
So, 07.06. 2:00 8.7° C wolkenlos
Sa, 06.06. 20:00 14.5° C bedeckt
Sa, 06.06. 14:00 15.5° C leicht bewölkt
Sa, 06.06. 8:00 10.2° C leicht bewölkt
Sa, 06.06. 2:00 9.7° C bewölkt
Fr, 05.06. 20:00 14.9° C wolkenlos
Fr, 05.06. 14:00 14.6° C bedeckt
Ortszeit Temperatur Wetter
So, 07.06. 8:30 12.0° C bewölkt
So, 07.06. 8:20 12.0° C bewölkt
So, 07.06. 8:10 11.9° C bewölkt
So, 07.06. 8:00 11.4° C bewölkt
So, 07.06. 7:50 11.4° C bewölkt
So, 07.06. 7:40 11.4° C bedeckt
So, 07.06. 7:30 11.0° C bedeckt
So, 07.06. 7:00 10.1° C bedeckt
So, 07.06. 6:30 8.9° C wolkig
So, 07.06. 6:00 8.4° C wolkenlos
So, 07.06. 5:30 8.2° C wolkenlos
Ortszeit Relative Feuchte Sichtweite
So, 07.06. 8:00 88% 60 km
So, 07.06. 2:00 88% 40 km
Sa, 06.06. 20:00 70% >70 km
Sa, 06.06. 14:00 47% >70 km
Sa, 06.06. 8:00 77% 50 km
Sa, 06.06. 2:00 89% 55 km
Fr, 05.06. 20:00 66% >70 km
Fr, 05.06. 14:00 61% 65 km
Ortszeit Relative Feuchte Sichtweite
So, 07.06. 8:30 86% 45 km
So, 07.06. 8:20 86% -
So, 07.06. 8:10 88% -
So, 07.06. 8:00 88% 60 km
So, 07.06. 7:50 88% -
So, 07.06. 7:40 89% -
So, 07.06. 7:30 90% 45 km
So, 07.06. 7:00 90% 40 km
So, 07.06. 6:30 91% 30 km
So, 07.06. 6:00 91% 35 km
So, 07.06. 5:30 92% 27 km
Ortszeit Niederschlagsmenge Niederschlagsart
So, 07.06. 8:00 0.1 l/m2 in 12 Std. -
So, 07.06. 2:00 0.1 l/m2 in 6 Std. Regen
Sa, 06.06. 20:00 0.4 l/m2 in 12 Std. Regen
Sa, 06.06. 14:00 0.1 l/m2 in 6 Std. Regen
Sa, 06.06. 8:00 3 l/m2 in 12 Std. -
Sa, 06.06. 2:00 3 l/m2 in 6 Std. Regen
Fr, 05.06. 20:00 1 l/m2 in 12 Std. Regen
Fr, 05.06. 14:00 0.1 l/m2 in 6 Std. Regen
Ortszeit Niederschlagsmenge Niederschlagsart
So, 07.06. 8:30 0.0 l/m2 in 1 Std. -
So, 07.06. 8:20 keine Meldung -
So, 07.06. 8:10 keine Meldung -
So, 07.06. 8:00 0.0 l/m2 in 1 Std. -
So, 07.06. 7:50 keine Meldung -
So, 07.06. 7:40 keine Meldung -
So, 07.06. 7:30 0.0 l/m2 in 1 Std. -
So, 07.06. 7:00 0.0 l/m2 in 1 Std. -
So, 07.06. 6:30 0.0 l/m2 in 1 Std. -
So, 07.06. 6:00 0.0 l/m2 in 1 Std. -
So, 07.06. 5:30 0.0 l/m2 in 1 Std. -
Ortszeit Stärke Spitze Richtung
km/h Bft. km/h Grad Sektor
So, 07.06. 8:00 11 2 18 160° S
So, 07.06. 2:00 11 2 18 150° SO
Sa, 06.06. 20:00 6 1 46 190° S
Sa, 06.06. 14:00 22 4 44 210° SW
Sa, 06.06. 8:00 22 4 43 230° SW
Sa, 06.06. 2:00 22 4 47 220° SW
Fr, 05.06. 20:00 11 2 32 170° S
Fr, 05.06. 14:00 13 3 39 260° W
Ortszeit Stärke Spitze Richtung
km/h Bft. km/h Grad Sektor
So, 07.06. 8:30 11 2 19 150° SO
So, 07.06. 8:20 11 2 - 150° SO
So, 07.06. 8:10 11 2 - 150° SO
So, 07.06. 8:00 11 2 14 160° S
So, 07.06. 7:50 11 2 - 160° S
So, 07.06. 7:40 11 2 - 160° S
So, 07.06. 7:30 11 2 14 150° SO
So, 07.06. 7:00 11 2 18 160° S
So, 07.06. 6:30 13 3 17 170° S
So, 07.06. 6:00 13 3 19 150° SO
So, 07.06. 5:30 13 3 19 140° SO
Ortszeit Untergrenze Bedeckung Gattung
total tief tief mittel hoch
So, 07.06. 8:00 2400 m 8/8 4/8 - - -
So, 07.06. 2:00 - 0/8 0/8 - - -
Sa, 06.06. 20:00 1800 m 8/8 8/8 - - -
Sa, 06.06. 14:00 1500 m 4/8 4/8 - - -
Sa, 06.06. 8:00 600 m 3/8 3/8 - - -
Sa, 06.06. 2:00 570 m 7/8 6/8 - - -
Fr, 05.06. 20:00 2400 m 0/8 0/8 - - -
Fr, 05.06. 14:00 1110 m 8/8 8/8 - - -
Ortszeit Bedeckungsgrad in Achtel und Wolkenuntergrenze
So, 07.06. 8:30 6(2700m) 8(3300m) 8(4200m)
So, 07.06. 8:20 6(2700m) 8(3300m) 8(4200m)
So, 07.06. 8:10 7(2400m) 8(3300m) 8(3900m)
So, 07.06. 8:00 4(2400m) 8(3300m)
So, 07.06. 7:50 4(2400m) 8(3300m)
So, 07.06. 7:40 8(3300m)
So, 07.06. 7:30 8(3300m) 8(6300m)
So, 07.06. 7:00 6(3900m) 8(5100m) 8(5700m)
So, 07.06. 6:30 6(5100m)
So, 07.06. 6:00 keine Wolken
So, 07.06. 5:30 keine Wolken
Ortszeit Luftdruck NN (hPa) Tendenz (hPa in 3 Std.)
So, 07.06. 8:00 1006 + 0,9
So, 07.06. 2:00 1006 + 0,8
Sa, 06.06. 20:00 1003 + 1,0
Sa, 06.06. 14:00 1002 + 1,3
Sa, 06.06. 8:00 999 + 1,8
Sa, 06.06. 2:00 995 + 1,6
Fr, 05.06. 20:00 994 - 1,4
Fr, 05.06. 14:00 995 + 0,3
Ortszeit Luftdruck NN (hPa) Tendenz (hPa in 3 Std.)
So, 07.06. 8:30 1006 + 1,0
So, 07.06. 8:20 1006 keine Meldung
So, 07.06. 8:10 1006 keine Meldung
So, 07.06. 8:00 1006 + 0,9
So, 07.06. 7:50 1006 keine Meldung
So, 07.06. 7:40 1006 keine Meldung
So, 07.06. 7:30 1006 + 0,6
So, 07.06. 7:00 1006 + 0,7
So, 07.06. 6:30 1006 + 0,4
So, 07.06. 6:00 1006 - 0,1
So, 07.06. 5:30 1006 - 0,1
Ortszeit Schneehöhe (cm)
So, 07.06. 8:00 -
So, 07.06. 2:00 -
Sa, 06.06. 20:00 -
Sa, 06.06. 14:00 -
Sa, 06.06. 8:00 -
Sa, 06.06. 2:00 -
Fr, 05.06. 20:00 -
Fr, 05.06. 14:00 -
Ortszeit Schneehöhe (cm)
So, 07.06. 8:30 -
So, 07.06. 8:20 -
So, 07.06. 8:10 -
So, 07.06. 8:00 -
So, 07.06. 7:50 -
So, 07.06. 7:40 -
So, 07.06. 7:30 -
So, 07.06. 7:00 -
So, 07.06. 6:30 -
So, 07.06. 6:00 -
So, 07.06. 5:30 -
Link zu dieser Seite / Seite empfehlen

Das Wetter in ...